sensor_id;sensor_type;location;lat;lon;timestamp;temperature;humidity
46400;DHT22;32104;50.838;4.388;2023-06-10T00:01:38;23.20;99.70
46400;DHT22;32104;50.838;4.388;2023-06-10T00:04:08;23.20;99.90
46400;DHT22;32104;50.838;4.388;2023-06-10T00:06:34;23.10;99.90
46400;DHT22;32104;50.838;4.388;2023-06-10T00:09:05;23.10;99.90
46400;DHT22;32104;50.838;4.388;2023-06-10T00:11:34;23.10;99.90
46400;DHT22;32104;50.838;4.388;2023-06-10T00:14:00;23.00;99.90
46400;DHT22;32104;50.838;4.388;2023-06-10T00:16:26;23.10;99.90
46400;DHT22;32104;50.838;4.388;2023-06-10T00:18:53;23.00;99.90
46400;DHT22;32104;50.838;4.388;2023-06-10T00:21:21;22.90;99.90
46400;DHT22;32104;50.838;4.388;2023-06-10T00:23:47;22.90;99.90
46400;DHT22;32104;50.838;4.388;2023-06-10T00:26:14;22.90;99.90
46400;DHT22;32104;50.838;4.388;2023-06-10T00:28:40;22.80;99.90
46400;DHT22;32104;50.838;4.388;2023-06-10T00:31:06;22.70;99.90
46400;DHT22;32104;50.838;4.388;2023-06-10T00:33:32;22.90;99.90
46400;DHT22;32104;50.838;4.388;2023-06-10T00:35:58;22.90;99.90
46400;DHT22;32104;50.838;4.388;2023-06-10T00:38:25;22.90;99.90
46400;DHT22;32104;50.838;4.388;2023-06-10T00:40:51;22.90;99.90
46400;DHT22;32104;50.838;4.388;2023-06-10T00:43:17;22.80;99.90
46400;DHT22;32104;50.838;4.388;2023-06-10T00:45:43;22.70;99.90
46400;DHT22;32104;50.838;4.388;2023-06-10T00:48:09;22.70;99.90
46400;DHT22;32104;50.838;4.388;2023-06-10T00:50:35;22.80;99.90
46400;DHT22;32104;50.838;4.388;2023-06-10T00:53:04;22.70;99.90
46400;DHT22;32104;50.838;4.388;2023-06-10T00:55:32;22.60;99.90
46400;DHT22;32104;50.838;4.388;2023-06-10T00:57:59;22.60;99.90
46400;DHT22;32104;50.838;4.388;2023-06-10T01:00:25;22.50;99.90
46400;DHT22;32104;50.838;4.388;2023-06-10T01:02:51;22.50;99.90
46400;DHT22;32104;50.838;4.388;2023-06-10T01:05:20;22.60;99.90
46400;DHT22;32104;50.838;4.388;2023-06-10T01:11:01;22.50;99.90
46400;DHT22;32104;50.838;4.388;2023-06-10T01:13:30;22.40;99.90
46400;DHT22;32104;50.838;4.388;2023-06-10T01:15:58;22.40;99.90
46400;DHT22;32104;50.838;4.388;2023-06-10T01:18:30;22.30;99.90
46400;DHT22;32104;50.838;4.388;2023-06-10T01:20:57;22.40;99.90
46400;DHT22;32104;50.838;4.388;2023-06-10T01:23:23;22.30;99.90
46400;DHT22;32104;50.838;4.388;2023-06-10T01:26:10;22.40;99.90
46400;DHT22;32104;50.838;4.388;2023-06-10T01:28:44;22.20;99.90
46400;DHT22;32104;50.838;4.388;2023-06-10T01:34:00;22.10;99.90
46400;DHT22;32104;50.838;4.388;2023-06-10T01:36:28;22.10;99.90
46400;DHT22;32104;50.838;4.388;2023-06-10T01:38:55;22.20;99.90
46400;DHT22;32104;50.838;4.388;2023-06-10T01:41:23;22.20;99.90
46400;DHT22;32104;50.838;4.388;2023-06-10T01:43:49;22.20;99.90
46400;DHT22;32104;50.838;4.388;2023-06-10T01:46:15;22.20;99.90
46400;DHT22;32104;50.838;4.388;2023-06-10T01:48:45;22.10;99.90
46400;DHT22;32104;50.838;4.388;2023-06-10T01:51:10;22.10;99.90
46400;DHT22;32104;50.838;4.388;2023-06-10T01:53:36;22.00;99.90
46400;DHT22;32104;50.838;4.388;2023-06-10T01:56:02;22.10;99.90
46400;DHT22;32104;50.838;4.388;2023-06-10T01:58:28;22.10;99.90
46400;DHT22;32104;50.838;4.388;2023-06-10T02:00:54;22.10;99.90
46400;DHT22;32104;50.838;4.388;2023-06-10T02:03:20;22.10;99.90
46400;DHT22;32104;50.838;4.388;2023-06-10T02:05:45;22.00;99.90
46400;DHT22;32104;50.838;4.388;2023-06-10T02:08:11;22.10;99.90
46400;DHT22;32104;50.838;4.388;2023-06-10T02:10:37;22.00;99.90
46400;DHT22;32104;50.838;4.388;2023-06-10T02:13:03;22.00;99.90
46400;DHT22;32104;50.838;4.388;2023-06-10T02:15:29;22.10;99.90
46400;DHT22;32104;50.838;4.388;2023-06-10T02:18:10;22.00;99.90
46400;DHT22;32104;50.838;4.388;2023-06-10T02:20:38;22.10;99.90
46400;DHT22;32104;50.838;4.388;2023-06-10T02:23:04;22.10;99.90
46400;DHT22;32104;50.838;4.388;2023-06-10T02:25:30;22.10;99.90
46400;DHT22;32104;50.838;4.388;2023-06-10T02:27:56;22.00;99.90
46400;DHT22;32104;50.838;4.388;2023-06-10T02:30:24;22.00;99.90
46400;DHT22;32104;50.838;4.388;2023-06-10T02:36:53;21.90;99.90
46400;DHT22;32104;50.838;4.388;2023-06-10T06:07:55;21.90;99.90
46400;DHT22;32104;50.838;4.388;2023-06-10T12:37:34;31.40;76.80
46400;DHT22;32104;50.838;4.388;2023-06-10T13:00:45;31.60;76.90
46400;DHT22;32104;50.838;4.388;2023-06-10T13:20:53;31.70;78.30
46400;DHT22;32104;50.838;4.388;2023-06-10T13:24:18;31.90;77.30
46400;DHT22;32104;50.838;4.388;2023-06-10T13:30:35;31.90;76.30
46400;DHT22;32104;50.838;4.388;2023-06-10T13:44:20;32.10;75.00
46400;DHT22;32104;50.838;4.388;2023-06-10T13:47:41;32.10;75.60
46400;DHT22;32104;50.838;4.388;2023-06-10T14:01:09;31.70;73.80
46400;DHT22;32104;50.838;4.388;2023-06-10T14:08:23;31.80;74.80
46400;DHT22;32104;50.838;4.388;2023-06-10T14:18:32;31.90;73.80
46400;DHT22;32104;50.838;4.388;2023-06-10T14:42:20;32.00;73.70
46400;DHT22;32104;50.838;4.388;2023-06-10T14:45:58;31.90;74.00
46400;DHT22;32104;50.838;4.388;2023-06-10T14:52:54;32.00;73.20
46400;DHT22;32104;50.838;4.388;2023-06-10T14:55:49;31.90;73.40
46400;DHT22;32104;50.838;4.388;2023-06-10T15:49:31;31.60;74.70
46400;DHT22;32104;50.838;4.388;2023-06-10T15:55:32;31.70;73.50
46400;DHT22;32104;50.838;4.388;2023-06-10T16:15:28;31.40;75.20
46400;DHT22;32104;50.838;4.388;2023-06-10T16:21:22;31.50;74.00
46400;DHT22;32104;50.838;4.388;2023-06-10T16:24:45;31.50;75.50
46400;DHT22;32104;50.838;4.388;2023-06-10T16:35:10;31.20;73.70
46400;DHT22;32104;50.838;4.388;2023-06-10T16:47:11;31.30;74.40
46400;DHT22;32104;50.838;4.388;2023-06-10T16:53:33;31.20;73.60
46400;DHT22;32104;50.838;4.388;2023-06-10T21:09:54;27.00;89.70
46400;DHT22;32104;50.838;4.388;2023-06-10T21:12:20;26.70;90.50
46400;DHT22;32104;50.838;4.388;2023-06-10T22:24:20;25.70;92.20
46400;DHT22;32104;50.838;4.388;2023-06-10T22:34:52;25.50;92.40
46400;DHT22;32104;50.838;4.388;2023-06-10T22:44:18;25.30;93.20
46400;DHT22;32104;50.838;4.388;2023-06-10T22:54:56;25.10;93.60
46400;DHT22;32104;50.838;4.388;2023-06-10T23:41:20;24.40;95.60
